Hauptseite
METAR-TAF:

METAR-TAF

Flughäfen :

Flughafen Turin

Turin, Italien

Breite: 45-13N, Länge: 007-39E, Höhe: 301 m

Beobachtung

Neuester Wetterbericht von vor 25 Minuten, um 18:50 UTC
Wind 3 kt aus Nordost, variierte zwischen Nord und Ost/Nordost
Temperatur 26°C
Luftfeuchtigkeit 58%
Luftdruck 1017 hPa
Sichtweite 10 km oder mehr
keine Wolken unter 1500 m und keine Kumulonimbus oder Gewitterwolken

METAR: LIMF 191850Z 04003KT 010V070 CAVOK 26/17 Q1017

Zeit: 21:15 (19:15 UTC)

Prognose

Neuester Wetterbericht von vor 2 Stunden und 15 Minuten, um 17:00 UTC
Gültige Prognose vom 19 um 18 UTC bis 20 um 18 UTC
Wind 5 kt aus unterschiedlichen Richtungen
Sichtweite 10 km oder mehr
Aufgelockert bewölkt in der Höhe von 4000 ft

TAF: LIMF 191700Z 1918/2018 VRB05KT 9999 SCT040

Wetterbeobachtungen und Prognosen von mehr als 4000 Flughäfen (METAR und TAF Bericht).

Die verfügbaren Stationen werden durch gelbe und rote Markierungen auf der Karte dargestellt.

Führen Sie die Maus auf sie, um den Namen der Station zu sehen.

Darauf klicken, um die Beobachtung von Wetterbeobachtungen und Prognosen zu sehen.

Um die Karte zu ändern : klicken Sie auf den grünen Tasten mit einem schwarzen Kreuz Zum Vergrößern, auf den grünen Button mit einem Gedankenstrich zu verkleinern, oder auf die grünen Pfeile für benachbarte Karten.


METAR-TAF: